Thunder radar more information blitzortung!


Radar de pluja more information rain snow radar


Visita la nostra xarxa de llocs de meteo:

Template documentation
and downloads

And another site



No particular awareness of the weather is required.    There are no Weather-warnings

Pagina Historial Weather Underground text

Diari Resum Juny 28, 2017 Unitats:  Imperial    Mètric   Tant
« Previous Dia
SegĂźent Dia »
Diari Setmana Mensual Anual Personalitzada
  Maxima: Minima: Media:
Temperatura: TemperatureC °F 16.2 °F 24.6 °F
Punt de rosada: DewpointC °F 8.6 °F 12 °F
Humitat: Humidity % 28 % 48 %
Wind Speed: WindSpeedKMH mph 0.0 mph 10 mph
RĂ fegues de vent: WindSpeedGustKMH mph - -
Vent:- - SSW
Pression baro: PressurehPa in 999.9 in -
Precipitacions: 2.0 in    
Historical Graphs
 
 
Dades de taula per Juny 28, 2017
Temps Temperatura Punt de rosada Pression baro Vent Wind Speed RĂ fegues de vent Humitat Rainfall Rate (Hourly)
TemperatureC °F DewpointC °F PressurehPa in Calm     Humidity % HourlyPrecipMM in
00:00 21.0 °F 16.4 °F 1003.9 in ENE 3.2 mph 4.8 mph 75 % 0.0 in
00:04 23.4 °F 18.3 °F 1002.9 in Calm     73 % 0.0 in
00:10 21.0 °F 16.6 °F 1003.9 in ENE 1.6 mph 4.8 mph 76 % 0.0 in
00:20 21.0 °F 16.6 °F 1003.9 in NE 3.2 mph 6.4 mph 76 % 0.0 in
00:30 21.0 °F 16.6 °F 1003.9 in NE 3.2 mph 4.8 mph 76 % 0.0 in
00:40 20.9 °F 16.7 °F 1002.9 in Calm   3.2 mph 77 % 0.0 in
00:50 20.8 °F 16.6 °F 1002.9 in Calm   3.2 mph 77 % 0.0 in
01:00 20.8 °F 16.6 °F 1002.9 in Calm   3.2 mph 77 % 0.0 in
01:10 20.6 °F 16.4 °F 1003.9 in North 1.6 mph 3.2 mph 77 % 0.0 in
01:20 20.4 °F 16.2 °F 1002.9 in Calm   1.6 mph 77 % 0.0 in
01:30 20.3 °F 16.1 °F 1002.9 in Calm     77 % 0.0 in
01:40 20.2 °F 16.2 °F 1002.9 in Calm   1.6 mph 78 % 0.0 in
01:50 20.2 °F 16.2 °F 1002.9 in Calm   1.6 mph 78 % 0.0 in
02:00 20.1 °F 16.2 °F 1002.9 in West 1.6 mph 3.2 mph 78 % 0.0 in
02:10 20.2 °F 16.2 °F 1003.9 in WSW 1.6 mph 3.2 mph 78 % 0.0 in
02:20 20.2 °F 16.2 °F 1003.9 in Calm   4.8 mph 78 % 0.0 in
02:30 20.2 °F 16.2 °F 1003.9 in WSW 3.2 mph 4.8 mph 78 % 0.0 in
02:40 20.4 °F 16.4 °F 1002.9 in SW 1.6 mph 3.2 mph 78 % 0.0 in
02:50 20.6 °F 16.6 °F 1003.9 in SW 3.2 mph 3.2 mph 78 % 0.0 in
03:00 21.0 °F 16.8 °F 1003.9 in WSW 3.2 mph 4.8 mph 77 % 0.0 in
03:10 21.6 °F 17.2 °F 1003.9 in WSW 3.2 mph 6.4 mph 76 % 0.0 in
03:20 22.1 °F 16.6 °F 1003.9 in WSW 4.8 mph 8.0 mph 71 % 0.0 in
03:30 22.7 °F 16.3 °F 1003.9 in West 4.8 mph 6.4 mph 67 % 0.0 in
03:40 23.0 °F 15.3 °F 1003.9 in West 4.8 mph 9.7 mph 62 % 0.0 in
03:50 22.8 °F 14.4 °F 1002.9 in WSW 4.8 mph 12.9 mph 59 % 0.0 in
04:00 22.5 °F 13.6 °F 1002.9 in WSW 4.8 mph 9.7 mph 57 % 0.0 in
04:10 23.3 °F 14.1 °F 1005.0 in WSW 3.2 mph 4.8 mph 56 % 0.0 in
04:20 23.7 °F 14.1 °F 1003.9 in WSW 4.8 mph 4.8 mph 55 % 0.0 in
04:30 24.0 °F 13.8 °F 1003.9 in WSW 4.8 mph 6.4 mph 53 % 0.0 in
04:40 24.5 °F 14.0 °F 1002.9 in WSW 3.2 mph 6.4 mph 52 % 0.0 in
04:50 24.6 °F 13.8 °F 1003.9 in WSW 4.8 mph 6.4 mph 51 % 0.0 in
05:00 25.0 °F 13.6 °F 1003.9 in WSW 8.0 mph 11.3 mph 49 % 0.0 in
05:10 25.2 °F 13.4 °F 1003.9 in WSW 4.8 mph 8.0 mph 48 % 0.0 in
05:20 25.7 °F 13.6 °F 1003.9 in WSW 9.7 mph 9.7 mph 47 % 0.0 in
05:30 26.2 °F 13.7 °F 1003.9 in WSW 4.8 mph 9.7 mph 46 % 0.0 in
05:40 26.3 °F 13.1 °F 1003.9 in West 8.0 mph 9.7 mph 44 % 0.0 in
10:45 26.6 °F 12.6 °F 1002.9 in West 16.7 mph 16.7 mph 42 % 0.0 in
10:46 26.6 °F 12.6 °F 1002.9 in WSW 16.7 mph 16.7 mph 42 % 0.0 in
10:51 26.9 °F 12.9 °F 1002.9 in South 5.6 mph 5.6 mph 42 % 0.0 in
10:56 27.1 °F 12.7 °F 1002.9 in SSW 7.6 mph 7.6 mph 41 % 0.0 in
10:57 27.0 °F 12.6 °F 1002.9 in West 9.3 mph 9.3 mph 41 % 0.0 in
11:02 26.6 °F 12.3 °F 1002.9 in WSW 5.6 mph 5.6 mph 41 % 0.0 in
11:07 26.7 °F 12.0 °F 1002.9 in WNW 13.0 mph 13.0 mph 40 % 0.0 in
11:12 26.7 °F 11.6 °F 1002.9 in SW 14.8 mph 14.8 mph 39 % 0.0 in
11:17 27.1 °F 11.9 °F 1002.9 in WSW 6.4 mph 6.4 mph 39 % 0.0 in
11:22 27.5 °F 11.9 °F 1002.9 in WSW 9.3 mph 9.3 mph 38 % 0.0 in
11:23 27.5 °F 11.9 °F 1002.9 in West 13.0 mph 13.0 mph 38 % 0.0 in
11:28 27.4 °F 11.4 °F 1002.9 in West 13.0 mph 13.0 mph 37 % 0.0 in
11:33 27.4 °F 11.4 °F 1002.9 in WSW 9.3 mph 9.3 mph 37 % 0.0 in
11:38 27.5 °F 11.1 °F 1002.9 in WSW 13.0 mph 13.0 mph 36 % 0.0 in
11:43 27.8 °F 11.3 °F 1002.9 in SW 9.3 mph 9.3 mph 36 % 0.0 in
11:48 27.6 °F 11.2 °F 1002.9 in West 11.1 mph 11.1 mph 36 % 0.0 in
11:53 27.4 °F 11.0 °F 1002.9 in West 11.1 mph 11.1 mph 36 % 0.0 in
11:58 27.1 °F 10.7 °F 1002.9 in West 9.3 mph 9.3 mph 36 % 0.0 in
12:03 27.3 °F 10.9 °F 1002.9 in South 9.3 mph 9.3 mph 36 % 0.0 in
12:08 27.7 °F 11.3 °F 1002.9 in SW 7.4 mph 7.4 mph 36 % 0.0 in
12:13 27.1 °F 10.3 °F 1002.9 in WSW 16.7 mph 16.7 mph 35 % 0.0 in
12:18 27.5 °F 10.7 °F 1002.9 in WSW 9.3 mph 9.3 mph 35 % 0.0 in
12:23 27.8 °F 10.9 °F 1002.9 in WNW 11.1 mph 11.1 mph 35 % 0.0 in
12:28 28.1 °F 10.8 °F 1002.9 in West 16.7 mph 16.7 mph 34 % 0.0 in
12:33 28.2 °F 10.4 °F 1002.9 in West 13.0 mph 13.0 mph 33 % 0.0 in
12:38 29.0 °F 11.1 °F 1002.9 in West 9.3 mph 9.3 mph 33 % 0.0 in
12:43 28.4 °F 10.6 °F 1001.9 in WSW 14.8 mph 14.8 mph 33 % 0.0 in
12:48 28.6 °F 10.3 °F 1001.9 in WSW 11.1 mph 11.1 mph 32 % 0.0 in
12:53 28.3 °F 10.0 °F 1001.9 in WNW 9.3 mph 9.3 mph 32 % 0.0 in
12:58 28.7 °F 10.8 °F 1001.9 in SW 9.3 mph 9.3 mph 33 % 0.0 in
13:03 28.9 °F 10.6 °F 1001.9 in WSW 13.0 mph 13.0 mph 32 % 0.0 in
13:08 28.4 °F 10.1 °F 1001.9 in WSW 11.1 mph 11.1 mph 32 % 0.0 in
13:13 28.0 °F 9.8 °F 1001.9 in SW 9.7 mph 9.7 mph 32 % 0.0 in
13:18 28.8 °F 10.0 °F 1001.9 in South 13.0 mph 13.0 mph 31 % 0.0 in
13:23 29.0 °F 10.2 °F 1001.9 in WSW 14.8 mph 14.8 mph 31 % 0.0 in
13:28 29.4 °F 10.5 °F 1001.9 in West 3.7 mph 4.7 mph 31 % 0.0 in
13:33 29.7 °F 10.8 °F 1001.9 in West 9.3 mph 9.3 mph 31 % 0.0 in
13:38 29.7 °F 10.8 °F 1001.9 in West 18.5 mph 18.5 mph 31 % 0.0 in
13:43 29.7 °F 10.8 °F 1001.9 in WSW 13.0 mph 13.0 mph 31 % 0.0 in
13:48 29.7 °F 10.8 °F 1001.9 in SSW 12.2 mph 12.2 mph 31 % 0.0 in
13:53 29.9 °F 10.4 °F 1001.9 in SW 16.7 mph 16.7 mph 30 % 0.0 in
13:58 29.9 °F 10.4 °F 1001.9 in West 5.6 mph 5.6 mph 30 % 0.0 in
14:03 29.7 °F 9.8 °F 1001.9 in WSW 16.7 mph 16.7 mph 29 % 0.0 in
14:08 29.6 °F 9.7 °F 1001.9 in South 14.8 mph 14.8 mph 29 % 0.0 in
14:13 29.6 °F 9.7 °F 1001.9 in West 20.4 mph 20.4 mph 29 % 0.0 in
14:18 29.7 °F 9.8 °F 1001.9 in West 25.9 mph 25.9 mph 29 % 0.0 in
14:23 29.4 °F 9.0 °F 1001.9 in West 16.7 mph 16.7 mph 28 % 0.0 in
14:28 29.7 °F 9.2 °F 1001.9 in SW 11.1 mph 11.1 mph 28 % 0.0 in
14:33 30.0 °F 9.5 °F 1001.9 in SW 16.7 mph 16.7 mph 28 % 0.0 in
14:38 29.9 °F 9.4 °F 1001.9 in West 16.9 mph 16.9 mph 28 % 0.0 in
14:43 29.8 °F 9.3 °F 1001.9 in SW 20.4 mph 20.4 mph 28 % 0.0 in
14:48 30.2 °F 9.7 °F 1001.9 in WSW 13.0 mph 13.0 mph 28 % 0.0 in
14:53 30.0 °F 9.5 °F 1001.9 in WNW 9.3 mph 9.3 mph 28 % 0.0 in
14:58 30.5 °F 9.9 °F 1000.9 in WSW 9.0 mph 9.0 mph 28 % 0.0 in
15:03 29.9 °F 9.4 °F 1000.9 in West 13.0 mph 13.0 mph 28 % 0.0 in
15:08 30.1 °F 9.6 °F 1000.9 in ESE 14.8 mph 14.8 mph 28 % 0.0 in
15:13 30.1 °F 9.6 °F 1000.9 in West 10.0 mph 10.0 mph 28 % 0.0 in
15:18 30.3 °F 9.8 °F 1000.9 in WNW 16.7 mph 16.7 mph 28 % 0.0 in
15:23 30.1 °F 9.6 °F 1000.9 in WSW 11.1 mph 11.1 mph 28 % 0.0 in
15:28 30.3 °F 9.8 °F 1000.9 in SW 9.3 mph 9.3 mph 28 % 0.0 in
15:33 30.2 °F 9.7 °F 1000.9 in WSW 10.3 mph 10.3 mph 28 % 0.0 in
15:38 30.1 °F 9.6 °F 1000.9 in SSE 11.9 mph 11.9 mph 28 % 0.0 in
15:43 30.1 °F 9.6 °F 999.9 in WSW 13.0 mph 13.0 mph 28 % 0.0 in
15:48 31.1 °F 10.4 °F 999.9 in SSW 18.5 mph 18.5 mph 28 % 0.0 in
15:53 31.4 °F 10.7 °F 999.9 in South 11.1 mph 11.1 mph 28 % 0.0 in
15:58 31.0 °F 10.3 °F 999.9 in SSW 18.5 mph 18.5 mph 28 % 0.0 in
15:59 30.9 °F 10.3 °F 999.9 in WSW 18.5 mph 18.5 mph 28 % 0.0 in
16:04 30.9 °F 10.3 °F 999.9 in WNW 20.4 mph 20.4 mph 28 % 0.0 in
16:09 30.0 °F 9.5 °F 999.9 in WSW 13.0 mph 13.0 mph 28 % 0.0 in
16:14 29.6 °F 9.2 °F 999.9 in SW 9.7 mph 9.7 mph 28 % 0.0 in
16:19 29.1 °F 8.7 °F 999.9 in West 16.7 mph 16.7 mph 28 % 0.0 in
16:24 29.0 °F 8.7 °F 999.9 in SW 11.1 mph 11.1 mph 28 % 0.0 in
16:29 29.0 °F 8.7 °F 1000.9 in SW 14.5 mph 14.5 mph 28 % 0.0 in
16:34 29.0 °F 8.7 °F 1000.9 in SW 9.3 mph 9.3 mph 28 % 0.0 in
16:39 28.6 °F 8.8 °F 1000.9 in SW 13.0 mph 13.0 mph 29 % 0.0 in
16:44 28.5 °F 8.7 °F 999.9 in South 24.1 mph 24.1 mph 29 % 0.0 in
16:49 28.3 °F 8.6 °F 999.9 in West 18.5 mph 18.5 mph 29 % 0.0 in
16:54 28.4 °F 8.7 °F 999.9 in WSW 27.8 mph 27.8 mph 29 % 0.0 in
16:59 28.5 °F 9.2 °F 999.9 in WSW 16.7 mph 16.7 mph 30 % 0.0 in
17:04 28.6 °F 9.3 °F 999.9 in SW 18.5 mph 18.5 mph 30 % 0.0 in
17:09 28.5 °F 9.2 °F 999.9 in WSW 14.8 mph 14.8 mph 30 % 0.0 in
17:14 28.9 °F 9.6 °F 999.9 in SW 16.7 mph 16.7 mph 30 % 0.0 in
17:19 28.4 °F 9.2 °F 999.9 in West 22.2 mph 22.2 mph 30 % 0.0 in
17:24 28.0 °F 9.3 °F 999.9 in SSW 29.6 mph 29.6 mph 31 % 0.0 in
17:29 28.0 °F 9.3 °F 999.9 in SW 22.2 mph 22.2 mph 31 % 0.0 in
17:34 27.9 °F 10.1 °F 999.9 in SSW 22.2 mph 22.2 mph 33 % 0.0 in
17:40 28.1 °F 10.3 °F 999.9 in SSW 30.1 mph 30.1 mph 33 % 0.0 in
17:45 27.9 °F 10.6 °F 999.9 in SW 33.3 mph 33.3 mph 34 % 0.0 in
17:50 27.7 °F 10.8 °F 999.9 in SW 22.2 mph 22.2 mph 35 % 0.0 in
17:55 28.3 °F 11.8 °F 999.9 in SW 16.1 mph 16.1 mph 36 % 0.0 in
18:00 28.0 °F 11.6 °F 999.9 in South 16.1 mph 16.1 mph 36 % 0.0 in
18:05 27.8 °F 11.8 °F 999.9 in West 22.2 mph 22.2 mph 37 % 0.0 in
18:10 28.0 °F 11.6 °F 999.9 in SW 19.8 mph 19.8 mph 36 % 0.0 in
18:15 28.0 °F 11.6 °F 999.9 in SSW 22.2 mph 22.2 mph 36 % 0.0 in
18:20 27.9 °F 11.4 °F 999.9 in SW 20.4 mph 20.4 mph 36 % 0.0 in
18:25 27.5 °F 11.1 °F 999.9 in SW 16.7 mph 16.7 mph 36 % 0.0 in
18:30 27.2 °F 11.2 °F 999.9 in SW 20.9 mph 20.9 mph 37 % 0.0 in
18:35 26.8 °F 11.7 °F 999.9 in WSW 20.4 mph 20.4 mph 39 % 0.0 in
18:40 26.3 °F 11.6 °F 999.9 in SW 20.9 mph 20.9 mph 40 % 0.0 in
18:45 26.2 °F 11.6 °F 999.9 in West 24.1 mph 24.1 mph 40 % 0.0 in
18:50 26.0 °F 11.7 °F 999.9 in WSW 24.1 mph 24.1 mph 41 % 0.0 in
18:55 26.1 °F 11.8 °F 999.9 in SW 14.8 mph 14.8 mph 41 % 0.0 in
19:00 25.9 °F 12.0 °F 999.9 in South 16.7 mph 16.7 mph 42 % 0.0 in
19:05 25.8 °F 12.3 °F 999.9 in South 14.8 mph 14.8 mph 43 % 0.0 in
19:10 25.6 °F 12.4 °F 999.9 in West 15.8 mph 15.8 mph 44 % 0.0 in
19:15 24.9 °F 12.2 °F 999.9 in WSW 33.3 mph 33.3 mph 45 % 0.0 in
19:20 20.9 °F 11.2 °F 999.9 in SSW 22.2 mph 22.2 mph 54 % 0.0 in
19:25 19.4 °F 11.2 °F 999.9 in SW 9.3 mph 9.3 mph 59 % 2.0 in
19:30 19.0 °F 11.1 °F 1001.9 in SW 7.4 mph 7.4 mph 60 % 2.0 in
19:35 18.8 °F 11.6 °F 1001.9 in SSW 9.3 mph 9.3 mph 63 % 2.0 in
19:40 18.7 °F 11.7 °F 1001.9 in WSW 5.6 mph 5.6 mph 64 % 2.0 in
19:45 18.8 °F 12.1 °F 1000.9 in West 5.6 mph 5.6 mph 65 % 2.0 in
19:50 19.1 °F 12.6 °F 1000.9 in West 3.7 mph 3.7 mph 66 % 2.0 in
19:55 19.2 °F 12.4 °F 1000.9 in NW 2.6 mph 2.6 mph 65 % 2.0 in
20:00 19.4 °F 13.1 °F 1001.9 in East 5.6 mph 5.6 mph 67 % 2.0 in
20:05 19.5 °F 13.0 °F 1001.9 in East 3.9 mph 3.9 mph 66 % 2.0 in
20:10 19.6 °F 13.3 °F 1001.9 in ENE 5.8 mph 5.8 mph 67 % 2.0 in
20:15 19.7 °F 13.4 °F 1001.9 in South 3.7 mph 3.7 mph 67 % 2.0 in
20:20 19.6 °F 13.1 °F 1001.9 in East 5.6 mph 5.6 mph 66 % 2.0 in
20:25 19.6 °F 12.8 °F 1001.9 in NE 3.7 mph   65 % 0.0 in
20:30 19.6 °F 12.8 °F 1001.9 in NE 1.9 mph   65 % 0.0 in
20:35 19.6 °F 12.6 °F 1001.9 in West 1.9 mph   64 % 0.0 in
20:40 19.7 °F 12.7 °F 1001.9 in Calm     64 % 0.0 in
20:45 19.7 °F 12.2 °F 1001.9 in WSW 3.7 mph 3.7 mph 62 % 0.0 in
20:50 19.8 °F 12.6 °F 1001.9 in Calm     63 % 0.0 in
20:55 19.9 °F 12.7 °F 1001.9 in SE 1.9 mph   63 % 0.0 in
21:00 19.9 °F 12.4 °F 1001.9 in Calm     62 % 0.0 in
21:05 19.9 °F 13.1 °F 1001.9 in WSW 2.6 mph   65 % 0.0 in
21:10 19.7 °F 13.4 °F 1001.9 in WSW 1.9 mph   67 % 0.0 in
21:15 19.6 °F 13.3 °F 1001.9 in Calm     67 % 0.0 in
21:20 19.5 °F 13.2 °F 1001.9 in WNW 1.9 mph   67 % 0.0 in
21:25 19.5 °F 13.2 °F 1001.9 in Calm     67 % 0.0 in
21:30 19.5 °F 13.7 °F 1002.9 in NE 3.2 mph 3.2 mph 69 % 0.0 in
21:35 19.3 °F 13.2 °F 1002.9 in ENE 2.3 mph 2.3 mph 68 % 0.0 in
21:40 19.3 °F 13.0 °F 1002.9 in NE 3.7 mph 3.7 mph 67 % 0.0 in
21:45 19.5 °F 13.0 °F 1002.9 in ENE 7.9 mph 7.9 mph 66 % 0.0 in
21:50 19.6 °F 12.8 °F 1002.9 in North 7.4 mph 7.4 mph 65 % 0.0 in
21:55 19.7 °F 12.7 °F 1002.9 in NE 9.3 mph 9.3 mph 64 % 0.0 in
22:00 19.7 °F 12.9 °F 1003.9 in NNE 7.4 mph 7.4 mph 65 % 0.0 in
22:05 19.7 °F 12.9 °F 1003.9 in NNE 9.3 mph 9.3 mph 65 % 0.0 in
22:10 19.7 °F 12.9 °F 1003.9 in West 7.4 mph 7.4 mph 65 % 0.0 in
22:15 19.4 °F 12.7 °F 1003.9 in NNE 5.3 mph 5.3 mph 65 % 0.0 in
22:20 19.5 °F 12.5 °F 1003.9 in WSW 5.6 mph 5.6 mph 64 % 0.0 in
22:25 19.7 °F 12.7 °F 1003.9 in East 3.9 mph 3.9 mph 64 % 0.0 in
22:30 19.9 °F 12.4 °F 1002.9 in NNW 1.9 mph 2.3 mph 62 % 0.0 in
22:35 20.2 °F 12.2 °F 1002.9 in East 3.7 mph 3.7 mph 60 % 0.0 in
22:40 20.0 °F 12.5 °F 1002.9 in East 5.6 mph 5.6 mph 62 % 0.0 in
22:45 19.6 °F 12.8 °F 1002.9 in ESE 7.4 mph 7.4 mph 65 % 0.0 in
22:50 19.4 °F 12.7 °F 1002.9 in SSE 5.6 mph 5.6 mph 65 % 0.0 in
22:55 19.3 °F 12.8 °F 1002.9 in SE 5.6 mph 5.6 mph 66 % 0.0 in
23:00 19.2 °F 12.4 °F 1003.9 in SSW 1.4 mph   65 % 0.0 in
23:05 19.1 °F 12.6 °F 1003.9 in WSW 3.7 mph 3.7 mph 66 % 0.0 in
23:10 18.9 °F 12.6 °F 1003.9 in SW 1.4 mph   67 % 0.0 in
23:15 18.7 °F 12.7 °F 1002.9 in Calm     68 % 0.0 in
23:20 18.7 °F 12.7 °F 1002.9 in NE 3.7 mph 3.7 mph 68 % 0.0 in
23:25 16.2 °F 12.2 °F 1006.0 in SW 3.2 mph 3.2 mph 77 % 0.0 in
23:30 18.8 °F 12.8 °F 1003.9 in East 6.9 mph 6.9 mph 68 % 0.0 in
23:35 18.8 °F 12.8 °F 1003.9 in ESE 9.3 mph 9.3 mph 68 % 0.0 in
23:40 18.8 °F 12.6 °F 1003.9 in ESE 5.6 mph 5.6 mph 67 % 0.0 in
23:45 18.8 °F 12.8 °F 1003.9 in NNE 5.6 mph 5.6 mph 68 % 0.0 in
23:50 18.8 °F 12.8 °F 1003.9 in East 7.4 mph 7.4 mph 68 % 0.0 in
23:55 18.8 °F 12.8 °F 1003.9 in SE 9.3 mph 9.3 mph 68 % 0.0 in
Meteo Sesrovires
Elogis d' Weather Underground - 1.5 mb

Guio original per  Jim McMurry - jmcmurry@mwt.net Adaptat per a la plantilla per  Wim van der Kuil - Leuven-Template.eu

Trobareu la nostra informacio del temps tambe a:

Weather Underground

AWEKAS